EDT,Max TemperatureF,Mean TemperatureF,Min TemperatureF,Max Dew PointF,MeanDew PointF,Min DewpointF,Max Humidity, Mean Humidity, Min Humidity, Max Sea Level PressureIn, Mean Sea Level PressureIn, Min Sea Level PressureIn, Max VisibilityMiles, Mean VisibilityMiles, Min VisibilityMiles, Max Wind SpeedMPH, Mean Wind SpeedMPH, Max Gust SpeedMPH,PrecipitationIn, CloudCover, Events, WindDirDegrees
2013-7-1,91,87,82,74,73,70,70,65,59,30.03,29.97,29.92,10,10,1,16,8,24,T,2,,174
2013-7-2,92,87,81,75,73,70,74,67,59,30.10,30.03,29.96,10,9,2,17,7,25,0.02,4,Rain-Thunderstorm,138
2013-7-3,90,83,75,75,73,70,85,72,59,30.11,30.07,30.03,10,8,1,17,8,30,0.60,4,Rain-Thunderstorm,139
2013-7-4,91,86,80,75,73,71,74,67,59,30.12,30.08,30.04,10,9,2,17,10,28,0.06,1,Rain-Thunderstorm,113
2013-7-5,89,83,77,75,73,70,79,69,59,30.11,30.07,30.03,10,7,0,22,8,33,0.76,4,Rain-Thunderstorm,118
2013-7-6,89,85,81,77,74,70,74,67,59,30.08,30.05,30.01,10,9,2,16,8,24,0.10,2,Rain,102
2013-7-7,90,85,80,75,73,71,79,68,56,30.07,30.04,30.01,10,9,1,16,9,25,0.20,3,Rain-Thunderstorm,93
2013-7-8,90,85,79,73,70,66,79,65,50,30.13,30.09,30.05,10,10,8,16,9,23,T,1,Rain,87
2013-7-9,89,85,81,73,71,68,74,67,59,30.14,30.09,30.05,10,10,10,12,5,15,T,1,Thunderstorm,56
2013-7-10,92,86,80,73,71,66,74,63,52,30.08,30.04,30.00,10,10,10,14,4,21,0.01,2,Thunderstorm,98
2013-7-11,93,87,80,74,72,70,74,63,52,30.04,29.99,29.94,10,10,8,12,4,18,0.00,1,,136
2013-7-12,93,87,81,74,73,71,74,63,52,29.99,29.95,29.91,10,10,10,12,5,17,0.00,1,,177
2013-7-13,92,84,75,75,72,70,69,64,59,30.04,29.98,29.93,10,8,2,16,8,25,0.47,4,Rain-Thunderstorm,180
2013-7-14,90,84,77,75,72,69,79,67,55,30.07,30.03,29.97,10,9,4,22,9,28,0.18,3,Rain-Thunderstorm,107
2013-7-15,89,83,76,72,70,66,79,67,55,30.08,30.04,30.00,10,9,2,18,10,25,0.30,3,Rain-Thunderstorm,72
2013-7-16,88,82,76,73,71,69,79,69,59,30.09,30.05,30.01,10,8,1,24,10,31,0.41,5,Rain-Thunderstorm,89
2013-7-17,84,80,75,73,72,70,85,75,65,30.12,30.08,30.03,10,6,0,16,7,24,1.20,6,Fog-Rain,98
2013-7-18,85,79,72,75,72,68,90,82,74,30.15,30.09,30.04,10,7,0,22,8,32,2.19,5,Fog-Rain-Thunderstorm,58
2013-7-19,89,85,81,76,75,74,85,75,65,30.11,30.07,30.03,10,10,7,13,7,21,0.00,1,,105
2013-7-20,89,85,80,76,75,71,85,77,68,30.11,30.06,30.01,10,9,2,14,6,18,0.02,2,Rain,139
2013-7-21,92,88,83,77,75,72,79,69,59,30.14,30.10,30.06,10,9,8,10,6,15,0.00,1,,120
2013-7-22,91,87,82,74,73,72,74,67,59,30.15,30.11,30.08,10,10,8,10,6,18,0.00,2,,104
2013-7-23,92,87,82,75,73,71,74,65,56,30.12,30.06,30.01,10,10,10,9,4,14,0.00,1,,126
2013-7-24,91,86,80,73,72,71,79,68,56,30.04,30.00,29.96,10,10,10,8,2,13,0.00,2,,276
2013-7-25,92,86,79,74,72,70,74,63,52,30.07,30.02,29.95,10,10,10,12,5,16,0.00,2,,279
2013-7-26,93,87,80,74,73,71,79,66,52,30.07,30.03,30.01,10,10,10,10,5,16,0.00,2,,273
2013-7-27,91,84,77,76,73,70,70,61,52,30.03,30.00,29.96,10,9,0,14,3,20,1.23,5,Rain,273
2013-7-28,92,85,78,75,73,71,91,74,56,30.08,30.02,29.96,10,8,1,7,3,9,0.00,1,Rain-Thunderstorm,121
2013-7-29,93,88,82,75,74,70,74,63,52,30.12,30.07,30.01,10,10,10,13,6,18,0.00,0,,95
2013-7-30,92,87,82,76,74,70,74,68,61,30.14,30.10,30.06,10,10,10,13,6,23,0.00,1,,87
2013-7-31,92,88,83,76,74,72,79,68,56,30.10,30.04,29.98,10,10,2,21,9,28,0.10,1,Rain-Thunderstorm,88